Time;durP1;ratioP1;P1;durP2;ratioP2;P2;SDS_P1;SDS_P2;PMS_P1;PMS_P2;Temp;Humidity;BMP_temperature;BMP_pressure;BME280_temperature;BME280_humidity;BME280_pressure;Samples;Min_cycle;Max_cycle;Signal;HPM_P1;HPM_P2
2022/06/02 00:00:19;;;;;;;10.93;7.35;;;11.50;99.90;;;;;;4955272;29;20028;-76
2022/06/02 00:02:45;;;;;;;8.93;6.00;;;11.50;99.90;;;;;;4927884;29;20043;-76
2022/06/02 00:05:50;;;;;;;10.68;6.82;;;11.60;99.90;;;;;;4959349;29;20024;-76
2022/06/02 00:08:19;;;;;;;11.25;6.90;;;11.50;99.90;;;;;;4933356;29;20059;-76
2022/06/02 00:10:54;;;;;;;;;;;11.40;99.90;;;;;;4946041;29;20032;-76
2022/06/02 00:13:41;;;;;;;10.30;6.07;;;11.40;99.90;;;;;;4944690;29;19914;-75
2022/06/02 00:16:25;;;;;;;10.13;7.03;;;11.40;99.90;;;;;;4957025;29;20070;-76
2022/06/02 00:18:58;;;;;;;21.80;8.50;;;11.50;99.90;;;;;;4955265;29;20027;-77
2022/06/02 00:21:52;;;;;;;12.93;7.65;;;11.50;99.90;;;;;;4954468;29;20031;-75
2022/06/02 00:24:28;;;;;;;10.38;6.85;;;11.50;99.90;;;;;;4939828;29;20042;-75
2022/06/02 00:27:04;;;;;;;11.57;6.70;;;11.50;99.90;;;;;;4940291;29;20083;-76
2022/06/02 00:29:44;;;;;;;12.57;7.57;;;11.50;99.90;;;;;;4954514;29;20031;-76
2022/06/02 00:32:22;;;;;;;13.00;7.00;;;11.40;99.90;;;;;;4954462;29;20099;-75
2022/06/02 00:35:06;;;;;;;11.85;5.97;;;11.20;99.90;;;;;;4954093;29;20083;-76
2022/06/02 00:38:11;;;;;;;9.82;7.35;;;11.20;99.90;;;;;;4953548;29;20032;-76
2022/06/02 00:40:38;;;;;;;10.70;7.10;;;11.20;99.90;;;;;;4937001;29;20039;-76
2022/06/02 00:43:31;;;;;;;15.00;7.18;;;11.20;99.90;;;;;;4939792;29;20032;-76
2022/06/02 00:46:22;;;;;;;10.32;6.53;;;11.20;99.90;;;;;;4940624;29;20063;-76
2022/06/02 00:49:05;;;;;;;13.85;6.45;;;13.30;99.90;;;;;;4944684;29;20024;-76
2022/06/02 00:52:00;;;;;;;10.90;7.45;;;11.10;99.90;;;;;;4944051;29;20036;-76
2022/06/02 00:58:06;;;;;;;13.50;7.90;;;10.90;99.90;;;;;;4943491;29;20507;-76
2022/06/02 01:00:55;;;;;;;11.70;6.70;;;10.80;99.90;;;;;;4935794;29;20510;-76
2022/06/02 01:03:26;;;;;;;13.73;7.50;;;10.80;99.90;;;;;;4951529;29;20429;-76
2022/06/02 01:06:10;;;;;;;10.15;6.38;;;10.70;99.90;;;;;;4952234;29;20035;-76
2022/06/02 01:09:00;;;;;;;11.98;7.57;;;10.60;99.90;;;;;;4935485;29;20047;-76
2022/06/02 01:11:51;;;;;;;10.30;6.05;;;10.60;99.90;;;;;;4951177;29;20047;-76
2022/06/02 01:14:25;;;;;;;8.25;6.40;;;10.60;99.90;;;;;;4939415;29;20044;-76
2022/06/02 01:17:03;;;;;;;10.40;7.07;;;10.40;99.90;;;;;;4939421;29;20035;-76
2022/06/02 01:19:34;;;;;;;14.68;8.27;;;10.40;99.90;;;;;;4953727;29;20172;-76
2022/06/02 01:22:00;;;;;;;11.05;7.72;;;10.40;99.90;;;;;;4954194;29;20504;-76
2022/06/02 01:24:44;;;;;;;18.92;8.20;;;10.50;99.90;;;;;;4938987;29;20047;-76
2022/06/02 01:27:35;;;;;;;20.92;8.10;;;10.40;99.90;;;;;;4953466;29;20536;-76
2022/06/02 01:30:21;;;;;;;15.75;7.20;;;10.40;99.90;;;;;;4951548;29;20477;-76
2022/06/02 01:33:41;;;;;;;14.95;8.90;;;10.50;99.90;;;;;;4950966;29;20036;-76
2022/06/02 01:36:20;;;;;;;12.35;6.85;;;10.40;99.90;;;;;;4861468;29;20479;-76
2022/06/02 01:39:33;;;;;;;13.32;7.55;;;10.20;99.90;;;;;;4942797;29;20043;-76
2022/06/02 01:42:02;;;;;;;15.18;8.00;;;10.30;99.90;;;;;;4924889;29;20028;-76
2022/06/02 01:44:56;;;;;;;10.27;6.93;;;10.30;99.90;;;;;;4942504;29;20130;-76
2022/06/02 01:47:38;;;;;;;9.63;6.80;;;10.40;99.90;;;;;;4953593;29;20082;-77
2022/06/02 01:50:18;;;;;;;11.73;7.20;;;10.30;99.90;;;;;;4938574;29;20109;-76
2022/06/02 01:53:07;;;;;;;11.18;6.32;;;10.30;99.90;;;;;;4956959;29;20035;-76
2022/06/02 01:55:49;;;;;;;9.18;5.95;;;10.30;99.90;;;;;;4952002;29;20485;-76
2022/06/02 01:58:36;;;;;;;13.85;5.18;;;10.20;99.90;;;;;;4942985;29;20617;-76
2022/06/02 02:01:05;;;;;;;10.23;5.72;;;;;;;;;;4958419;29;20174;-76
2022/06/02 02:03:48;;;;;;;9.90;6.10;;;10.20;99.90;;;;;;4944609;29;20111;-76
2022/06/02 02:06:20;;;;;;;9.98;6.22;;;10.10;99.90;;;;;;4936587;29;20026;-76
2022/06/02 02:09:07;;;;;;;13.75;5.90;;;10.20;99.90;;;;;;4951058;29;20062;-78
2022/06/02 02:11:42;;;;;;;11.82;6.80;;;10.10;99.90;;;;;;4936257;29;20103;-76
2022/06/02 02:14:35;;;;;;;12.68;6.15;;;10.10;99.90;;;;;;4950743;29;20139;-76
2022/06/02 02:17:25;;;;;;;10.95;5.63;;;10.20;99.90;;;;;;4941142;29;20020;-76
2022/06/02 02:20:16;;;;;;;8.25;5.40;;;10.10;99.90;;;;;;4952469;29;20066;-76
2022/06/02 02:22:54;;;;;;;11.70;5.70;;;10.00;99.90;;;;;;4937531;29;20131;-76
2022/06/02 02:25:47;;;;;;;9.13;5.22;;;10.00;99.90;;;;;;4937394;29;20032;-76
2022/06/02 02:28:23;;;;;;;9.07;5.90;;;10.10;99.90;;;;;;4937356;29;20034;-76
2022/06/02 02:31:09;;;;;;;9.90;6.25;;;10.10;99.90;;;;;;4951408;29;20048;-76
2022/06/02 02:33:56;;;;;;;9.18;5.85;;;10.10;99.90;;;;;;4901889;29;20036;-76
2022/06/02 02:36:37;;;;;;;7.10;4.88;;;10.20;99.90;;;;;;4956640;29;20127;-76
2022/06/02 02:39:12;;;;;;;11.68;6.20;;;10.00;99.90;;;;;;4954827;29;20082;-76
2022/06/02 02:41:46;;;;;;;8.07;6.25;;;10.00;99.90;;;;;;4953757;29;20031;-76
2022/06/02 02:44:54;;;;;;;9.95;6.13;;;9.90;99.90;;;;;;4938521;29;20035;-76
2022/06/02 02:47:57;;;;;;;9.90;5.75;;;9.80;99.90;;;;;;4939597;29;20039;-75
2022/06/02 02:50:30;;;;;;;6.93;4.72;;;9.70;99.90;;;;;;4900721;29;20520;-76
2022/06/02 02:53:04;;;;;;;6.05;4.47;;;9.80;99.90;;;;;;4951866;29;20035;-75
2022/06/02 02:55:41;;;;;;;5.55;4.55;;;9.60;99.90;;;;;;4937460;29;20643;-76
2022/06/02 02:58:34;;;;;;;5.60;4.68;;;9.50;99.90;;;;;;4936908;29;20039;-76
2022/06/02 03:01:11;;;;;;;10.38;4.50;;;9.50;99.90;;;;;;4951874;29;20027;-76
2022/06/02 03:04:06;;;;;;;7.90;4.97;;;9.60;99.90;;;;;;4936713;29;20094;-76
2022/06/02 03:06:36;;;;;;;6.20;4.00;;;9.40;99.90;;;;;;4951808;29;20082;-76
2022/06/02 03:09:22;;;;;;;;;;;9.50;99.90;;;;;;4954589;29;20082;-76
2022/06/02 03:11:53;;;;;;;6.10;4.38;;;9.50;99.90;;;;;;4915998;29;19907;-76
2022/06/02 03:14:39;;;;;;;5.28;3.90;;;9.60;99.90;;;;;;4935998;29;20076;-76
2022/06/02 03:17:32;;;;;;;7.38;4.40;;;9.60;99.90;;;;;;4935522;29;20024;-76
2022/06/02 03:20:18;;;;;;;5.25;3.35;;;9.70;99.90;;;;;;4936782;29;20032;-76
2022/06/02 03:23:08;;;;;;;5.45;4.63;;;9.70;99.90;;;;;;4936774;29;20084;-76
2022/06/02 03:25:55;;;;;;;7.55;3.95;;;9.70;99.90;;;;;;4951560;29;20095;-76
2022/06/02 03:28:36;;;;;;;3.10;2.35;;;9.80;99.90;;;;;;4951785;29;20039;-76
2022/06/02 03:31:51;;;;;;;5.05;2.90;;;9.80;99.90;;;;;;4952538;29;20032;-76
2022/06/02 03:34:27;;;;;;;2.42;2.22;;;9.90;99.90;;;;;;4943581;29;20060;-75
2022/06/02 03:36:58;;;;;;;3.25;1.85;;;10.10;99.90;;;;;;4950642;29;20051;-75
2022/06/02 03:39:40;;;;;;;2.17;1.90;;;10.00;99.90;;;;;;4934304;29;20016;-76
2022/06/02 03:42:39;;;;;;;1.55;1.40;;;9.90;99.90;;;;;;4934132;29;20087;-76
2022/06/02 03:45:20;;;;;;;5.22;1.70;;;9.90;99.90;;;;;;4948823;29;20036;-75
2022/06/02 03:47:45;;;;;;;1.70;1.60;;;9.90;99.90;;;;;;4934498;29;20589;-76
2022/06/02 03:50:14;;;;;;;3.75;1.73;;;9.90;99.90;;;;;;4933760;29;20102;-76
2022/06/02 03:53:01;;;;;;;3.72;1.38;;;9.90;99.90;;;;;;4951321;29;20032;-76
2022/06/02 03:55:45;;;;;;;1.55;1.40;;;9.90;99.90;;;;;;4953778;29;20028;-76
2022/06/02 03:58:58;;;;;;;1.17;1.13;;;9.90;99.90;;;;;;4952411;29;20072;-76
2022/06/02 04:01:29;;;;;;;2.55;1.40;;;10.00;99.90;;;;;;4858248;29;20045;-75
2022/06/02 04:03:57;;;;;;;2.20;1.58;;;10.70;99.90;;;;;;4922021;29;20051;-76
2022/06/02 04:07:17;;;;;;;2.78;1.30;;;10.20;99.90;;;;;;4935949;29;20059;-76
2022/06/02 04:09:46;;;;;;;;;;;10.00;99.90;;;;;;4859446;29;20037;-76
2022/06/02 04:15:56;;;;;;;3.47;1.42;;;10.10;99.90;;;;;;4935968;29;20412;-76
2022/06/02 04:18:37;;;;;;;4.03;1.23;;;10.20;99.90;;;;;;4954260;29;20531;-76
2022/06/02 04:21:29;;;;;;;1.73;1.60;;;10.30;99.90;;;;;;4957580;28;20023;-76
2022/06/02 04:24:11;;;;;;;2.17;1.13;;;10.60;99.90;;;;;;4946444;29;20086;-76
2022/06/02 04:27:11;;;;;;;2.55;1.65;;;10.60;99.90;;;;;;4959575;29;20024;-76
2022/06/02 04:29:54;;;;;;;1.85;1.30;;;10.70;99.90;;;;;;4948215;29;20440;-76
2022/06/02 04:32:41;;;;;;;3.40;1.40;;;10.80;99.90;;;;;;4942203;29;20036;-76
2022/06/02 04:35:57;;;;;;;2.85;1.75;;;11.00;99.90;;;;;;4956770;29;20497;-76
2022/06/02 04:38:23;;;;;;;2.20;1.20;;;;;;;;;;4862041;29;20035;-75
2022/06/02 04:41:02;;;;;;;1.80;1.70;;;11.30;99.90;;;;;;4935177;29;20059;-75
2022/06/02 04:43:47;;;;;;;;;;;11.50;99.90;;;;;;4958259;29;20063;-76
2022/06/02 04:46:53;;;;;;;1.08;1.00;;;11.80;99.90;;;;;;4943173;29;19907;-76
2022/06/02 04:49:40;;;;;;;2.00;1.25;;;11.60;99.90;;;;;;4942936;29;20027;-76
2022/06/02 04:52:20;;;;;;;3.38;1.25;;;11.50;99.90;;;;;;4940817;29;20031;-76
2022/06/02 04:54:52;;;;;;;2.45;1.40;;;11.50;99.90;;;;;;4954328;29;20032;-76
2022/06/02 04:57:45;;;;;;;1.55;1.42;;;11.50;99.90;;;;;;4955159;29;20358;-76
2022/06/02 05:00:17;;;;;;;1.98;1.13;;;11.60;99.90;;;;;;4941093;29;20032;-76
2022/06/02 05:03:00;;;;;;;1.30;1.20;;;11.70;99.90;;;;;;4940972;29;20079;-76
2022/06/02 05:05:39;;;;;;;1.55;1.45;;;11.90;99.90;;;;;;4960263;29;20028;-76
2022/06/02 05:08:08;;;;;;;4.50;2.10;;;;;;;;;;4945642;29;20063;-76
2022/06/02 05:10:48;;;;;;;2.35;1.70;;;12.60;99.90;;;;;;4947542;29;20094;-76
2022/06/02 05:13:43;;;;;;;2.47;1.23;;;12.80;99.90;;;;;;4948072;29;20540;-76
2022/06/02 05:16:24;;;;;;;1.33;1.17;;;13.00;99.90;;;;;;4948854;29;20047;-76
2022/06/02 05:19:28;;;;;;;1.67;1.20;;;13.10;99.90;;;;;;4948711;29;20086;-76
2022/06/02 05:22:25;;;;;;;2.08;1.35;;;13.30;99.90;;;;;;4933664;29;20035;-76
2022/06/02 05:25:25;;;;;;;1.30;1.20;;;13.50;99.90;;;;;;4952321;29;20110;-76
2022/06/02 05:28:03;;;;;;;1.92;1.50;;;13.50;99.90;;;;;;4943536;29;20023;-76
2022/06/02 05:30:46;;;;;;;2.83;1.55;;;13.40;99.90;;;;;;4942666;29;20042;-77
2022/06/02 05:33:33;;;;;;;5.30;1.90;;;13.50;99.90;;;;;;4956173;28;20419;-77
2022/06/02 05:36:36;;;;;;;1.73;1.60;;;13.70;99.90;;;;;;4961620;29;20060;-76
2022/06/02 05:39:21;;;;;;;4.07;1.50;;;13.90;99.90;;;;;;4948678;29;20071;-78
2022/06/02 05:42:04;;;;;;;2.42;1.40;;;13.50;99.90;;;;;;4931834;29;20043;-77
2022/06/02 05:44:29;;;;;;;3.20;1.75;;;13.40;99.90;;;;;;4945812;29;20528;-77
2022/06/02 05:47:18;;;;;;;2.00;1.63;;;13.10;99.90;;;;;;4936255;29;20079;-77
2022/06/02 05:50:08;;;;;;;6.43;1.67;;;13.10;99.90;;;;;;4933759;29;20580;-77
2022/06/02 05:53:12;;;;;;;1.65;1.55;;;13.60;99.90;;;;;;4939508;29;20019;-76
2022/06/02 05:56:03;;;;;;;2.97;1.80;;;13.00;99.90;;;;;;4951621;29;20051;-77
2022/06/02 05:58:29;;;;;;;2.80;2.53;;;;;;;;;;4924452;29;20028;-77
2022/06/02 06:01:27;;;;;;;3.88;1.70;;;13.10;99.90;;;;;;4925493;29;20020;-76
2022/06/02 06:04:25;;;;;;;2.03;1.83;;;13.30;99.90;;;;;;4942439;29;20052;-77
2022/06/02 06:06:57;;;;;;;1.75;1.58;;;13.70;99.90;;;;;;4916899;29;20568;-77
2022/06/02 06:09:41;;;;;;;4.30;1.80;;;13.90;99.90;;;;;;4931432;29;20425;-79
2022/06/02 06:12:16;;;;;;;3.40;2.10;;;13.50;99.90;;;;;;4934179;29;20035;-76
2022/06/02 06:14:48;;;;;;;5.38;2.70;;;13.70;99.90;;;;;;4934579;29;20052;-77
2022/06/02 06:17:26;;;;;;;2.97;1.88;;;13.70;99.90;;;;;;4920665;29;20180;-77
2022/06/02 06:20:04;;;;;;;2.55;1.60;;;14.00;99.90;;;;;;4933504;29;20561;-77
2022/06/02 06:22:42;;;;;;;4.90;1.98;;;14.20;99.90;;;;;;4922028;29;20040;-76
2022/06/02 06:25:07;;;;;;;15.02;2.88;;;14.10;99.90;;;;;;4919398;29;20032;-76
2022/06/02 06:27:48;;;;;;;3.40;1.67;;;14.10;99.90;;;;;;4920164;29;20087;-77
2022/06/02 06:30:24;;;;;;;3.33;1.65;;;14.20;99.90;;;;;;4919629;29;20035;-77
2022/06/02 06:33:27;;;;;;;1.52;1.42;;;14.70;99.90;;;;;;4919743;29;20025;-77
2022/06/02 06:36:22;;;;;;;2.60;1.90;;;15.10;99.90;;;;;;4916528;29;20032;-76
2022/06/02 06:39:14;;;;;;;3.17;1.67;;;15.30;99.90;;;;;;4890803;29;20032;-76
2022/06/02 06:41:45;;;;;;;3.08;1.73;;;15.90;99.90;;;;;;4916271;29;20397;-77
2022/06/02 06:44:17;;;;;;;1.80;1.67;;;16.80;99.90;;;;;;4913463;29;20044;-77
2022/06/02 06:46:48;;;;;;;1.75;1.65;;;17.60;99.90;;;;;;4915368;29;20024;-79
2022/06/02 06:49:27;;;;;;;2.58;1.80;;;17.50;99.90;;;;;;4915117;29;20070;-77
2022/06/02 06:52:24;;;;;;;2.20;1.70;;;18.20;99.90;;;;;;4915415;29;20020;-78
2022/06/02 06:55:05;;;;;;;2.88;1.45;;;19.30;99.90;;;;;;4929549;29;20040;-79
2022/06/02 06:58:05;;;;;;;3.70;1.60;;;19.90;99.90;;;;;;4913734;29;20671;-75
2022/06/02 07:00:47;;;;;;;3.08;1.48;;;19.60;99.90;;;;;;4925662;29;20039;-78
2022/06/02 07:03:39;;;;;;;3.75;1.55;;;19.10;99.90;;;;;;4947453;29;20121;-75
2022/06/02 07:06:21;;;;;;;2.03;1.85;;;19.00;99.90;;;;;;4947020;29;20814;-77
2022/06/02 07:08:50;;;;;;;7.93;3.78;;;18.30;99.90;;;;;;4926740;29;20050;-78
2022/06/02 07:14:25;;;;;;;2.83;1.70;;;18.10;99.90;;;;;;4932103;29;20070;-77
2022/06/02 07:16:55;;;;;;;2.55;2.05;;;18.90;99.90;;;;;;4931602;29;20035;-78
2022/06/02 07:19:40;;;;;;;2.15;2.00;;;19.30;99.90;;;;;;4932498;29;20026;-78
2022/06/02 07:22:46;;;;;;;2.35;1.55;;;18.90;99.90;;;;;;4934524;29;20095;-77
2022/06/02 07:25:18;;;;;;;2.40;2.15;;;18.50;99.90;;;;;;4918618;29;20132;-77
2022/06/02 07:28:02;;;;;;;2.13;1.92;;;17.80;99.90;;;;;;4954304;29;20031;-77
2022/06/02 07:30:46;;;;;;;4.88;2.30;;;16.90;99.90;;;;;;4939378;29;20032;-76
2022/06/02 07:33:34;;;;;;;6.55;2.40;;;16.90;99.90;;;;;;4952957;29;20063;-77
2022/06/02 07:36:22;;;;;;;2.53;2.33;;;16.20;99.90;;;;;;4936627;29;20028;-77
2022/06/02 07:39:27;;;;;;;3.53;2.15;;;16.20;99.90;;;;;;4953556;29;20485;-76
2022/06/02 07:42:19;;;;;;;3.60;2.72;;;17.00;99.90;;;;;;4938489;29;20489;-77
2022/06/02 07:44:55;;;;;;;2.70;2.30;;;17.10;99.90;;;;;;4953108;29;20048;-78
2022/06/02 07:47:36;;;;;;;3.03;2.45;;;17.10;99.90;;;;;;4938932;29;20031;-79
2022/06/02 07:50:10;;;;;;;2.42;2.15;;;16.90;99.90;;;;;;4952395;29;20035;-79
2022/06/02 07:53:14;;;;;;;3.33;2.40;;;17.00;99.90;;;;;;4952349;29;20020;-79
2022/06/02 07:56:08;;;;;;;3.03;2.83;;;17.50;99.90;;;;;;4937139;29;20461;-77
2022/06/02 07:59:09;;;;;;;3.08;2.50;;;18.80;99.90;;;;;;4934570;29;20028;-79
2022/06/02 08:01:53;;;;;;;5.65;2.75;;;19.40;99.90;;;;;;4871307;29;20510;-78
2022/06/02 08:04:42;;;;;;;7.68;2.25;;;19.70;99.90;;;;;;4935342;29;20075;-79
2022/06/02 08:07:59;;;;;;;2.75;2.15;;;20.00;99.90;;;;;;4931587;29;20038;-77
2022/06/02 08:10:50;;;;;;;3.55;2.42;;;20.20;99.90;;;;;;4854640;29;20034;-77
2022/06/02 08:13:31;;;;;;;4.85;2.47;;;20.50;99.90;;;;;;4854951;29;20057;-77
2022/06/02 08:16:35;;;;;;;5.07;2.80;;;19.90;99.90;;;;;;4914670;29;20054;-78
2022/06/02 08:19:16;;;;;;;5.32;2.47;;;19.90;99.90;;;;;;4931494;29;20047;-78
2022/06/02 08:21:42;;;;;;;3.65;2.75;;;19.90;99.90;;;;;;4933026;29;20031;-80
2022/06/02 08:24:40;;;;;;;4.72;2.63;;;19.40;99.90;;;;;;4947028;29;20050;-77
2022/06/02 08:27:14;;;;;;;3.03;2.70;;;19.50;99.90;;;;;;4932525;29;20075;-77
2022/06/02 08:30:04;;;;;;;4.50;2.42;;;20.20;99.90;;;;;;4931438;29;20027;-78
2022/06/02 08:32:45;;;;;;;2.92;1.98;;;20.80;99.90;;;;;;4934847;29;20493;-76
2022/06/02 08:35:24;;;;;;;2.78;2.08;;;21.20;98.50;;;;;;4932151;29;20058;-75
2022/06/02 08:38:10;;;;;;;;;;;21.40;89.60;;;;;;4947503;29;20032;-79
2022/06/02 08:40:57;;;;;;;4.97;2.15;;;20.70;99.90;;;;;;4932508;29;19996;-78
2022/06/02 08:43:49;;;;;;;3.22;2.50;;;20.80;99.90;;;;;;4925345;29;20527;-80
2022/06/02 08:46:43;;;;;;;2.58;2.30;;;20.90;99.90;;;;;;4925973;29;20067;-80
2022/06/02 08:49:14;;;;;;;3.35;1.88;;;20.60;99.90;;;;;;4945910;29;20067;-80
2022/06/02 08:52:01;;;;;;;3.30;2.47;;;20.70;99.90;;;;;;4944014;29;20038;-80
2022/06/02 08:54:39;;;;;;;6.18;3.00;;;20.80;99.90;;;;;;4928655;29;20067;-79
2022/06/02 08:57:49;;;;;;;5.22;2.75;;;22.50;99.90;;;;;;4930514;29;20532;-80
2022/06/02 09:00:33;;;;;;;6.15;3.40;;;20.10;99.90;;;;;;4897974;29;20028;-78
2022/06/02 09:03:30;;;;;;;5.07;3.42;;;20.50;99.90;;;;;;4930852;29;20447;-80
2022/06/02 09:06:23;;;;;;;3.83;2.47;;;20.50;99.90;;;;;;4935408;29;20055;-81
2022/06/02 09:09:09;;;;;;;6.65;3.03;;;20.70;99.90;;;;;;4937093;29;20343;-81
2022/06/02 09:11:53;;;;;;;5.32;3.30;;;20.50;99.90;;;;;;4947176;29;20466;-79
2022/06/02 09:14:38;;;;;;;6.90;3.45;;;20.10;99.90;;;;;;4948989;29;20060;-79
2022/06/02 09:17:07;;;;;;;3.58;2.67;;;19.90;99.90;;;;;;4946180;29;20027;-80
2022/06/02 09:19:38;;;;;;;4.15;3.00;;;19.90;99.90;;;;;;4958564;29;20091;-81
2022/06/02 09:22:24;;;;;;;4.35;2.67;;;20.10;99.90;;;;;;4940815;29;20041;-80
2022/06/02 09:25:21;;;;;;;4.18;2.53;;;20.80;99.90;;;;;;4892686;29;20054;-80
2022/06/02 09:28:24;;;;;;;4.63;2.80;;;20.80;99.90;;;;;;4932646;29;20028;-79
2022/06/02 09:30:53;;;;;;;3.53;2.78;;;21.10;99.90;;;;;;4932538;29;20023;-80
2022/06/02 09:33:43;;;;;;;4.78;2.25;;;21.50;99.90;;;;;;4931182;29;20082;-77
2022/06/02 09:36:24;;;;;;;4.68;2.50;;;22.10;99.90;;;;;;4931112;29;20043;-79
2022/06/02 09:38:54;;;;;;;5.50;2.53;;;21.40;99.90;;;;;;4931421;29;20040;-80
2022/06/02 09:41:19;;;;;;;2.80;2.60;;;21.10;99.90;;;;;;4930979;29;20452;-80
2022/06/02 09:44:05;;;;;;;2.67;2.15;;;21.40;99.90;;;;;;4931429;29;20031;-80
2022/06/02 09:46:55;;;;;;;5.82;2.58;;;21.00;99.90;;;;;;4932175;29;20428;-77
2022/06/02 09:49:55;;;;;;;3.15;2.85;;;21.00;99.90;;;;;;4932474;29;20035;-80
2022/06/02 09:53:08;;;;;;;2.85;2.55;;;21.00;99.90;;;;;;4932463;29;20094;-79
2022/06/02 09:55:58;;;;;;;15.10;3.78;;;21.30;99.90;;;;;;4909926;29;20468;-80
2022/06/02 09:58:35;;;;;;;5.88;2.20;;;20.10;99.90;;;;;;4932227;29;20485;-80
2022/06/02 10:01:39;;;;;;;4.57;2.42;;;20.50;99.90;;;;;;4930959;29;20028;-84
2022/06/02 10:04:34;;;;;;;5.15;2.75;;;20.60;99.90;;;;;;4936375;29;20046;-79
2022/06/02 10:07:32;;;;;;;7.25;2.63;;;20.00;99.90;;;;;;4918781;29;20064;-80
2022/06/02 10:10:13;;;;;;;3.80;2.80;;;20.10;99.90;;;;;;4911975;29;20105;-84
2022/06/02 10:12:59;;;;;;;3.92;2.35;;;19.70;99.90;;;;;;4927654;29;20058;-80
2022/06/02 10:15:40;;;;;;;2.65;2.30;;;20.10;99.90;;;;;;4912421;29;20055;-79
2022/06/02 10:18:24;;;;;;;6.15;2.83;;;20.30;99.90;;;;;;4927316;29;20040;-80
2022/06/02 10:21:12;;;;;;;4.53;2.20;;;21.00;99.90;;;;;;4912436;29;20028;-77
2022/06/02 10:24:10;;;;;;;4.47;2.08;;;21.10;99.90;;;;;;4912717;29;20055;-78
2022/06/02 10:27:03;;;;;;;2.47;2.00;;;21.70;99.90;;;;;;4927380;29;20035;-79
2022/06/02 10:29:43;;;;;;;3.83;2.35;;;21.20;99.90;;;;;;4927284;29;20551;-80
2022/06/02 10:32:36;;;;;;;7.43;2.15;;;21.30;99.90;;;;;;4927364;29;20031;-79
2022/06/02 10:35:23;;;;;;;2.65;2.08;;;21.60;99.90;;;;;;4912743;29;20480;-79
2022/06/02 10:37:48;;;;;;;2.78;2.50;;;23.50;99.90;;;;;;4927172;29;20032;-82
2022/06/02 10:40:51;;;;;;;3.70;2.63;;;21.50;99.90;;;;;;4924503;29;20355;-79
2022/06/02 10:43:40;;;;;;;3.65;2.28;;;22.10;99.90;;;;;;4931735;29;20039;-79
2022/06/02 10:46:33;;;;;;;4.32;2.20;;;21.80;99.90;;;;;;4946455;29;20039;-81
2022/06/02 10:49:07;;;;;;;5.82;2.50;;;22.20;99.90;;;;;;4926679;29;20062;-80
2022/06/02 10:51:55;;;;;;;2.85;2.10;;;21.80;99.90;;;;;;4910544;29;20036;-79
2022/06/02 10:54:32;;;;;;;2.10;1.90;;;21.80;99.90;;;;;;4912820;29;20495;-80
2022/06/02 10:57:32;;;;;;;6.32;2.47;;;21.70;99.90;;;;;;4944666;29;20086;-79
2022/06/02 11:00:20;;;;;;;3.50;2.50;;;21.70;99.90;;;;;;4933141;29;20386;-79
2022/06/02 11:03:13;;;;;;;3.65;2.58;;;21.90;99.90;;;;;;4930156;29;20039;-79
2022/06/02 11:06:06;;;;;;;3.50;1.50;;;22.50;99.90;;;;;;4947558;29;20397;-79
2022/06/02 11:08:53;;;;;;;3.95;1.58;;;22.60;99.90;;;;;;4929784;29;20023;-79
2022/06/02 11:11:33;;;;;;;2.63;2.10;;;23.70;95.20;;;;;;4943681;29;20146;-79
2022/06/02 11:14:36;;;;;;;4.80;2.42;;;23.00;93.00;;;;;;4929019;29;20106;-80
2022/06/02 11:17:17;;;;;;;5.38;1.80;;;22.00;99.90;;;;;;4929346;29;20115;-81
2022/06/02 11:20:01;;;;;;;14.13;2.97;;;22.30;99.90;;;;;;4943734;29;20464;-81
2022/06/02 11:22:39;;;;;;;5.65;2.65;;;22.40;99.90;;;;;;4929219;29;20028;-81
2022/06/02 11:25:26;;;;;;;4.22;2.78;;;22.60;95.30;;;;;;4930398;29;20063;-81
2022/06/02 11:28:16;;;;;;;4.70;2.40;;;22.80;92.70;;;;;;4929685;29;20028;-79
2022/06/02 11:30:53;;;;;;;3.72;2.20;;;23.10;95.50;;;;;;4943912;28;20182;-80
2022/06/02 11:33:35;;;;;;;3.88;2.35;;;23.30;93.90;;;;;;4945373;29;20063;-80
2022/06/02 11:36:10;;;;;;;7.50;2.92;;;22.90;99.90;;;;;;4929963;29;20525;-83
2022/06/02 11:38:53;;;;;;;3.78;2.30;;;23.20;99.70;;;;;;4929790;29;20375;-80
2022/06/02 11:41:34;;;;;;;3.65;2.75;;;23.60;91.80;;;;;;4945204;29;20028;-80
2022/06/02 11:44:18;;;;;;;3.65;2.10;;;23.60;81.10;;;;;;4930533;29;20070;-81
2022/06/02 11:47:05;;;;;;;2.10;1.60;;;23.80;84.10;;;;;;4945113;29;20043;-80
2022/06/02 11:49:53;;;;;;;2.50;2.10;;;23.80;84.70;;;;;;4929777;29;20036;-79
2022/06/02 11:53:06;;;;;;;3.47;2.17;;;23.70;91.50;;;;;;4928754;29;20376;-81
2022/06/02 11:55:55;;;;;;;2.42;1.90;;;22.80;99.90;;;;;;4945052;29;20172;-80
2022/06/02 11:58:34;;;;;;;3.58;2.00;;;22.80;99.90;;;;;;4925774;29;20036;-80
2022/06/02 12:01:21;;;;;;;3.42;2.25;;;22.40;99.90;;;;;;4911575;29;20516;-80
2022/06/02 12:03:55;;;;;;;4.00;2.08;;;22.20;99.90;;;;;;4910761;29;20541;-79
2022/06/02 12:06:40;;;;;;;3.33;1.98;;;22.00;99.90;;;;;;4911702;29;20028;-81
2022/06/02 12:09:33;;;;;;;2.17;1.60;;;22.00;99.90;;;;;;4911242;29;20028;-82
2022/06/02 12:12:13;;;;;;;2.20;1.70;;;21.90;99.90;;;;;;4911144;29;20035;-79
2022/06/02 12:14:48;;;;;;;2.38;2.00;;;21.50;99.90;;;;;;4919147;29;20047;-80
2022/06/02 12:17:51;;;;;;;4.18;2.00;;;21.70;99.90;;;;;;4928632;29;20602;-79
2022/06/02 12:21:08;;;;;;;5.03;1.80;;;22.20;99.90;;;;;;4927442;29;20130;-80
2022/06/02 12:23:54;;;;;;;5.72;2.70;;;22.10;99.90;;;;;;4902992;29;20114;-81
2022/06/02 12:26:41;;;;;;;2.88;1.90;;;21.90;99.90;;;;;;4926432;29;20120;-82
2022/06/02 12:29:41;;;;;;;2.20;2.00;;;21.80;99.90;;;;;;4925812;29;20086;-81
2022/06/02 12:32:37;;;;;;;2.00;1.90;;;22.10;99.90;;;;;;4928354;29;20020;-79
2022/06/02 12:35:47;;;;;;;3.50;2.00;;;22.40;99.90;;;;;;4930629;29;20445;-80
2022/06/02 12:38:27;;;;;;;;;;;22.10;99.90;;;;;;4887430;29;20051;-79
2022/06/02 12:41:24;;;;;;;5.22;2.00;;;21.70;99.90;;;;;;4922530;29;19918;-87
2022/06/02 12:44:07;;;;;;;2.78;1.98;;;21.50;99.90;;;;;;4910736;29;20505;-84
2022/06/02 12:46:41;;;;;;;3.00;2.08;;;20.80;99.90;;;;;;4911446;29;20028;-83
2022/06/02 12:49:30;;;;;;;3.88;1.85;;;21.30;99.90;;;;;;4927592;29;20052;-84
2022/06/02 12:52:34;;;;;;;2.95;1.90;;;21.50;99.90;;;;;;4910512;29;20409;-81
2022/06/02 12:55:02;;;;;;;3.50;1.98;;;21.80;99.90;;;;;;4910064;29;20024;-81
2022/06/02 12:57:53;;;;;;;3.63;1.88;;;22.90;99.90;;;;;;4925100;29;20290;-81
2022/06/02 13:00:43;;;;;;;3.83;1.52;;;23.20;92.10;;;;;;4931441;29;20033;-81
2022/06/02 13:03:32;;;;;;;3.33;1.92;;;24.30;83.20;;;;;;4928001;29;20071;-81
2022/06/02 13:06:07;;;;;;;2.78;1.55;;;23.60;77.30;;;;;;4913967;29;20032;-80
2022/06/02 13:08:52;;;;;;;1.90;1.70;;;24.20;76.60;;;;;;4912263;29;20032;-82
2022/06/02 13:11:32;;;;;;;4.55;1.92;;;23.30;91.00;;;;;;4908914;29;20021;-82
2022/06/02 13:14:07;;;;;;;3.35;1.80;;;23.20;97.00;;;;;;4907922;29;20441;-82
2022/06/02 13:16:54;;;;;;;1.60;1.48;;;22.50;92.70;;;;;;4907923;29;20028;-84
2022/06/02 13:19:31;;;;;;;3.00;1.90;;;23.10;97.20;;;;;;4908490;29;20051;-80
2022/06/02 13:22:23;;;;;;;4.35;1.70;;;23.10;93.50;;;;;;4908969;29;20048;-83
2022/06/02 13:24:49;;;;;;;5.13;1.70;;;23.40;87.00;;;;;;4908112;29;20091;-83
2022/06/02 13:27:49;;;;;;;2.25;1.80;;;23.80;91.80;;;;;;4908969;29;20028;-82
2022/06/02 13:30:33;;;;;;;3.95;1.67;;;23.50;86.40;;;;;;4908112;29;20060;-83
2022/06/02 13:33:23;;;;;;;3.35;1.67;;;23.40;90.30;;;;;;4908858;29;20033;-83
2022/06/02 13:36:10;;;;;;;4.15;1.88;;;23.40;93.20;;;;;;4908300;29;20028;-83
2022/06/02 13:38:58;;;;;;;2.45;2.17;;;22.40;99.90;;;;;;4916034;29;20024;-82
2022/06/02 13:41:30;;;;;;;2.17;1.60;;;22.70;97.00;;;;;;4927886;29;20020;-83
2022/06/02 13:44:25;;;;;;;1.80;1.55;;;23.00;93.10;;;;;;4928016;29;20039;-83
2022/06/02 13:47:06;;;;;;;2.22;2.00;;;23.10;91.40;;;;;;4928354;29;20585;-82
2022/06/02 13:49:45;;;;;;;3.72;1.98;;;23.60;89.00;;;;;;4928358;29;20038;-82
2022/06/02 13:52:20;;;;;;;2.22;1.60;;;23.60;87.80;;;;;;4927662;29;20560;-83
2022/06/02 13:57:46;;;;;;;1.58;1.48;;;24.40;92.00;;;;;;4932596;29;20046;-83
2022/06/02 14:00:49;;;;;;;2.20;1.50;;;24.60;80.00;;;;;;4947429;29;20094;-83
2022/06/02 14:03:56;;;;;;;3.33;2.38;;;25.90;77.30;;;;;;4931163;29;20331;-83
2022/06/02 14:06:24;;;;;;;2.13;1.50;;;26.70;64.30;;;;;;4917430;29;20032;-82
2022/06/02 14:09:17;;;;;;;2.80;1.77;;;26.50;64.10;;;;;;4947413;29;20039;-83
2022/06/02 14:11:49;;;;;;;3.85;1.58;;;25.80;63.10;;;;;;4930732;29;20040;-82
2022/06/02 14:14:31;;;;;;;4.32;1.50;;;26.00;66.40;;;;;;4946519;29;20058;-82
2022/06/02 14:17:25;;;;;;;6.63;1.58;;;26.70;61.40;;;;;;4934320;29;20032;-82
2022/06/02 14:19:51;;;;;;;1.60;1.50;;;26.70;59.70;;;;;;4937601;29;20027;-82
2022/06/02 14:22:28;;;;;;;4.63;1.20;;;26.00;61.10;;;;;;4937372;29;20021;-83
2022/06/02 14:24:56;;;;;;;1.73;1.33;;;25.30;62.70;;;;;;4944692;29;20047;-82
2022/06/02 14:27:22;;;;;;;2.70;1.70;;;24.90;64.90;;;;;;4937923;29;20106;-82
2022/06/02 14:29:55;;;;;;;3.75;1.67;;;24.60;65.50;;;;;;4922873;29;20076;-83
2022/06/02 14:33:02;;;;;;;2.17;1.40;;;24.90;67.80;;;;;;4937860;29;20027;-81